sensor_id;sensor_type;location;lat;lon;timestamp;temperature;humidity
16040;DHT22;8124;48.634;8.120;2022-11-20T00:00:31;10.40;99.90
16040;DHT22;8124;48.634;8.120;2022-11-20T00:05:34;10.40;99.90
16040;DHT22;8124;48.634;8.120;2022-11-20T00:10:38;10.30;99.90
16040;DHT22;8124;48.634;8.120;2022-11-20T00:15:42;10.30;99.90
16040;DHT22;8124;48.634;8.120;2022-11-20T00:20:45;10.30;99.90
16040;DHT22;8124;48.634;8.120;2022-11-20T00:25:48;10.40;99.90
16040;DHT22;8124;48.634;8.120;2022-11-20T00:30:54;10.30;99.90
16040;DHT22;8124;48.634;8.120;2022-11-20T00:36:18;10.20;99.90
16040;DHT22;8124;48.634;8.120;2022-11-20T00:41:21;10.20;99.90
16040;DHT22;8124;48.634;8.120;2022-11-20T00:46:27;10.30;99.90
16040;DHT22;8124;48.634;8.120;2022-11-20T00:51:30;10.10;99.90
16040;DHT22;8124;48.634;8.120;2022-11-20T00:56:33;10.10;99.90
16040;DHT22;8124;48.634;8.120;2022-11-20T01:01:37;10.20;99.90
16040;DHT22;8124;48.634;8.120;2022-11-20T01:06:40;10.20;99.90
16040;DHT22;8124;48.634;8.120;2022-11-20T01:11:44;10.20;99.90
16040;DHT22;8124;48.634;8.120;2022-11-20T01:16:50;10.20;99.90
16040;DHT22;8124;48.634;8.120;2022-11-20T01:21:54;10.20;99.90
16040;DHT22;8124;48.634;8.120;2022-11-20T01:26:57;10.10;99.90
16040;DHT22;8124;48.634;8.120;2022-11-20T01:32:01;10.10;99.90
16040;DHT22;8124;48.634;8.120;2022-11-20T01:37:04;10.10;99.90
16040;DHT22;8124;48.634;8.120;2022-11-20T01:42:07;10.00;99.90
16040;DHT22;8124;48.634;8.120;2022-11-20T01:47:33;10.10;99.90
16040;DHT22;8124;48.634;8.120;2022-11-20T01:52:41;10.00;99.90
16040;DHT22;8124;48.634;8.120;2022-11-20T01:57:46;10.00;99.90
16040;DHT22;8124;48.634;8.120;2022-11-20T02:02:54;10.00;99.90
16040;DHT22;8124;48.634;8.120;2022-11-20T02:07:59;10.00;99.90
16040;DHT22;8124;48.634;8.120;2022-11-20T02:13:03;10.00;99.90
16040;DHT22;8124;48.634;8.120;2022-11-20T02:18:24;10.00;99.90
16040;DHT22;8124;48.634;8.120;2022-11-20T02:23:31;10.00;99.90
16040;DHT22;8124;48.634;8.120;2022-11-20T02:28:36;10.00;99.90
16040;DHT22;8124;48.634;8.120;2022-11-20T02:33:39;9.90;99.90
16040;DHT22;8124;48.634;8.120;2022-11-20T02:38:43;10.00;99.90
16040;DHT22;8124;48.634;8.120;2022-11-20T02:43:47;10.00;99.90
16040;DHT22;8124;48.634;8.120;2022-11-20T02:48:50;10.00;99.90
16040;DHT22;8124;48.634;8.120;2022-11-20T02:53:53;10.00;99.90
16040;DHT22;8124;48.634;8.120;2022-11-20T02:58:58;10.00;99.90
16040;DHT22;8124;48.634;8.120;2022-11-20T03:04:01;9.90;99.90
16040;DHT22;8124;48.634;8.120;2022-11-20T03:09:04;10.00;99.90
16040;DHT22;8124;48.634;8.120;2022-11-20T03:14:08;10.00;99.90
16040;DHT22;8124;48.634;8.120;2022-11-20T03:19:18;10.00;99.90
16040;DHT22;8124;48.634;8.120;2022-11-20T03:24:22;9.80;99.90
16040;DHT22;8124;48.634;8.120;2022-11-20T03:29:26;9.70;99.90
16040;DHT22;8124;48.634;8.120;2022-11-20T03:34:30;9.80;99.90
16040;DHT22;8124;48.634;8.120;2022-11-20T03:39:33;9.80;99.90
16040;DHT22;8124;48.634;8.120;2022-11-20T03:44:37;9.70;99.90
16040;DHT22;8124;48.634;8.120;2022-11-20T03:49:40;9.70;99.90
16040;DHT22;8124;48.634;8.120;2022-11-20T03:54:43;9.70;99.90
16040;DHT22;8124;48.634;8.120;2022-11-20T04:05:19;9.70;99.90
16040;DHT22;8124;48.634;8.120;2022-11-20T04:10:23;9.70;99.90
16040;DHT22;8124;48.634;8.120;2022-11-20T04:15:26;9.80;99.90
16040;DHT22;8124;48.634;8.120;2022-11-20T04:20:31;9.80;99.90
16040;DHT22;8124;48.634;8.120;2022-11-20T04:25:34;9.80;99.90
16040;DHT22;8124;48.634;8.120;2022-11-20T04:30:37;9.80;99.90
16040;DHT22;8124;48.634;8.120;2022-11-20T04:35:48;9.70;99.90
16040;DHT22;8124;48.634;8.120;2022-11-20T04:40:56;9.70;99.90
16040;DHT22;8124;48.634;8.120;2022-11-20T04:46:00;9.80;99.90
16040;DHT22;8124;48.634;8.120;2022-11-20T04:51:05;9.70;99.90
16040;DHT22;8124;48.634;8.120;2022-11-20T04:56:09;9.90;99.90
16040;DHT22;8124;48.634;8.120;2022-11-20T05:01:15;9.80;99.90
16040;DHT22;8124;48.634;8.120;2022-11-20T05:06:21;9.80;99.90
16040;DHT22;8124;48.634;8.120;2022-11-20T05:11:24;9.80;99.90
16040;DHT22;8124;48.634;8.120;2022-11-20T05:16:30;9.80;99.90
16040;DHT22;8124;48.634;8.120;2022-11-20T05:21:35;9.80;99.90
16040;DHT22;8124;48.634;8.120;2022-11-20T05:26:38;9.70;99.90
16040;DHT22;8124;48.634;8.120;2022-11-20T05:31:41;9.80;99.90
16040;DHT22;8124;48.634;8.120;2022-11-20T05:36:45;9.80;99.90
16040;DHT22;8124;48.634;8.120;2022-11-20T05:41:48;9.80;99.90
16040;DHT22;8124;48.634;8.120;2022-11-20T05:47:12;9.70;99.90
16040;DHT22;8124;48.634;8.120;2022-11-20T05:52:16;9.80;99.90
16040;DHT22;8124;48.634;8.120;2022-11-20T05:57:20;9.80;99.90
16040;DHT22;8124;48.634;8.120;2022-11-20T06:02:23;9.90;99.90
16040;DHT22;8124;48.634;8.120;2022-11-20T06:07:28;9.90;99.90
16040;DHT22;8124;48.634;8.120;2022-11-20T06:12:31;9.80;99.90
16040;DHT22;8124;48.634;8.120;2022-11-20T06:17:35;9.80;99.90
16040;DHT22;8124;48.634;8.120;2022-11-20T06:22:40;9.70;99.90
16040;DHT22;8124;48.634;8.120;2022-11-20T06:27:43;9.80;99.90
16040;DHT22;8124;48.634;8.120;2022-11-20T06:32:46;9.90;99.90
16040;DHT22;8124;48.634;8.120;2022-11-20T06:37:51;9.80;99.90
16040;DHT22;8124;48.634;8.120;2022-11-20T06:42:54;9.80;99.90
16040;DHT22;8124;48.634;8.120;2022-11-20T06:47:57;9.90;99.90
16040;DHT22;8124;48.634;8.120;2022-11-20T06:53:03;9.80;99.90
16040;DHT22;8124;48.634;8.120;2022-11-20T06:58:07;9.70;99.90
16040;DHT22;8124;48.634;8.120;2022-11-20T07:03:13;9.70;99.90
16040;DHT22;8124;48.634;8.120;2022-11-20T07:08:18;9.80;99.90
16040;DHT22;8124;48.634;8.120;2022-11-20T07:13:21;9.70;99.90
16040;DHT22;8124;48.634;8.120;2022-11-20T07:18:25;9.60;99.90
16040;DHT22;8124;48.634;8.120;2022-11-20T07:23:29;9.80;99.90
16040;DHT22;8124;48.634;8.120;2022-11-20T07:28:33;9.70;99.90
16040;DHT22;8124;48.634;8.120;2022-11-20T07:33:37;9.80;99.90
16040;DHT22;8124;48.634;8.120;2022-11-20T07:38:44;9.60;99.90
16040;DHT22;8124;48.634;8.120;2022-11-20T07:43:48;9.60;99.90
16040;DHT22;8124;48.634;8.120;2022-11-20T07:48:51;9.50;99.90
16040;DHT22;8124;48.634;8.120;2022-11-20T07:53:56;9.50;99.90
16040;DHT22;8124;48.634;8.120;2022-11-20T07:58:59;9.60;99.90
16040;DHT22;8124;48.634;8.120;2022-11-20T08:04:02;9.50;99.90
16040;DHT22;8124;48.634;8.120;2022-11-20T08:09:06;9.40;99.90
16040;DHT22;8124;48.634;8.120;2022-11-20T08:14:09;9.50;99.90
16040;DHT22;8124;48.634;8.120;2022-11-20T08:19:16;9.60;99.90
16040;DHT22;8124;48.634;8.120;2022-11-20T08:24:21;9.60;99.90
16040;DHT22;8124;48.634;8.120;2022-11-20T08:29:26;9.50;99.90
16040;DHT22;8124;48.634;8.120;2022-11-20T08:34:29;9.40;99.90
16040;DHT22;8124;48.634;8.120;2022-11-20T08:39:33;9.50;99.90
16040;DHT22;8124;48.634;8.120;2022-11-20T08:44:36;9.50;99.90
16040;DHT22;8124;48.634;8.120;2022-11-20T08:49:39;9.60;99.90
16040;DHT22;8124;48.634;8.120;2022-11-20T08:54:43;9.50;99.90
16040;DHT22;8124;48.634;8.120;2022-11-20T08:59:46;9.60;99.90
16040;DHT22;8124;48.634;8.120;2022-11-20T09:05:07;9.50;99.90
16040;DHT22;8124;48.634;8.120;2022-11-20T09:10:11;9.50;99.90
16040;DHT22;8124;48.634;8.120;2022-11-20T09:15:25;9.60;99.90
16040;DHT22;8124;48.634;8.120;2022-11-20T09:20:29;9.60;99.90
16040;DHT22;8124;48.634;8.120;2022-11-20T09:25:33;9.60;99.90
16040;DHT22;8124;48.634;8.120;2022-11-20T09:30:36;9.80;99.90
16040;DHT22;8124;48.634;8.120;2022-11-20T09:35:39;9.60;99.90
16040;DHT22;8124;48.634;8.120;2022-11-20T09:40:49;9.60;99.90
16040;DHT22;8124;48.634;8.120;2022-11-20T09:46:02;9.80;99.90
16040;DHT22;8124;48.634;8.120;2022-11-20T09:51:16;9.80;99.90
16040;DHT22;8124;48.634;8.120;2022-11-20T09:56:21;9.90;99.90
16040;DHT22;8124;48.634;8.120;2022-11-20T10:01:29;9.90;99.90
16040;DHT22;8124;48.634;8.120;2022-11-20T10:06:44;10.00;99.90
16040;DHT22;8124;48.634;8.120;2022-11-20T10:12:19;10.00;99.90
16040;DHT22;8124;48.634;8.120;2022-11-20T10:17:35;10.00;99.90
16040;DHT22;8124;48.634;8.120;2022-11-20T10:22:52;10.10;99.90
16040;DHT22;8124;48.634;8.120;2022-11-20T10:28:17;10.00;99.90
16040;DHT22;8124;48.634;8.120;2022-11-20T10:33:27;10.20;99.90
16040;DHT22;8124;48.634;8.120;2022-11-20T10:38:56;10.20;99.90
16040;DHT22;8124;48.634;8.120;2022-11-20T10:44:04;10.30;99.90
16040;DHT22;8124;48.634;8.120;2022-11-20T10:49:15;10.30;99.90
16040;DHT22;8124;48.634;8.120;2022-11-20T10:54:24;10.40;99.90
16040;DHT22;8124;48.634;8.120;2022-11-20T10:59:50;10.50;99.90
16040;DHT22;8124;48.634;8.120;2022-11-20T11:04:56;10.50;99.90
16040;DHT22;8124;48.634;8.120;2022-11-20T11:09:59;10.50;99.90
16040;DHT22;8124;48.634;8.120;2022-11-20T11:15:04;10.60;99.90
16040;DHT22;8124;48.634;8.120;2022-11-20T11:20:16;10.80;99.90
16040;DHT22;8124;48.634;8.120;2022-11-20T11:25:23;11.00;99.90
16040;DHT22;8124;48.634;8.120;2022-11-20T11:30:29;11.10;99.90
16040;DHT22;8124;48.634;8.120;2022-11-20T11:35:38;11.20;99.90
16040;DHT22;8124;48.634;8.120;2022-11-20T11:40:42;11.10;99.90
16040;DHT22;8124;48.634;8.120;2022-11-20T11:45:52;11.20;99.90
16040;DHT22;8124;48.634;8.120;2022-11-20T11:50:56;11.20;99.90
16040;DHT22;8124;48.634;8.120;2022-11-20T11:56:04;11.20;99.90
16040;DHT22;8124;48.634;8.120;2022-11-20T12:01:20;11.40;99.90
16040;DHT22;8124;48.634;8.120;2022-11-20T12:06:26;11.50;99.90
16040;DHT22;8124;48.634;8.120;2022-11-20T12:11:34;11.30;99.90
16040;DHT22;8124;48.634;8.120;2022-11-20T12:16:42;11.30;99.90
16040;DHT22;8124;48.634;8.120;2022-11-20T12:21:53;11.20;99.90
16040;DHT22;8124;48.634;8.120;2022-11-20T12:27:14;11.20;99.90
16040;DHT22;8124;48.634;8.120;2022-11-20T12:33:02;11.20;99.90
16040;DHT22;8124;48.634;8.120;2022-11-20T12:38:25;11.20;99.90
16040;DHT22;8124;48.634;8.120;2022-11-20T12:43:41;11.00;99.90
16040;DHT22;8124;48.634;8.120;2022-11-20T12:49:17;10.90;99.90
16040;DHT22;8124;48.634;8.120;2022-11-20T12:54:44;10.90;99.90
16040;DHT22;8124;48.634;8.120;2022-11-20T13:00:06;11.00;99.90
16040;DHT22;8124;48.634;8.120;2022-11-20T13:05:31;11.00;99.90
16040;DHT22;8124;48.634;8.120;2022-11-20T13:10:45;11.00;99.90
16040;DHT22;8124;48.634;8.120;2022-11-20T13:15:54;10.90;99.90
16040;DHT22;8124;48.634;8.120;2022-11-20T13:21:00;10.90;99.90
16040;DHT22;8124;48.634;8.120;2022-11-20T13:26:05;11.10;99.90
16040;DHT22;8124;48.634;8.120;2022-11-20T13:31:25;11.20;99.90
16040;DHT22;8124;48.634;8.120;2022-11-20T13:36:32;11.20;99.90
16040;DHT22;8124;48.634;8.120;2022-11-20T13:41:38;11.20;99.90
16040;DHT22;8124;48.634;8.120;2022-11-20T13:46:43;11.30;99.90
16040;DHT22;8124;48.634;8.120;2022-11-20T13:51:49;11.30;99.90
16040;DHT22;8124;48.634;8.120;2022-11-20T13:57:01;11.20;99.90
16040;DHT22;8124;48.634;8.120;2022-11-20T14:02:11;11.20;99.90
16040;DHT22;8124;48.634;8.120;2022-11-20T14:07:18;11.20;99.90
16040;DHT22;8124;48.634;8.120;2022-11-20T14:12:27;11.30;99.90
16040;DHT22;8124;48.634;8.120;2022-11-20T14:17:32;11.20;99.90
16040;DHT22;8124;48.634;8.120;2022-11-20T14:22:36;11.10;99.90
16040;DHT22;8124;48.634;8.120;2022-11-20T14:27:41;11.20;99.90
16040;DHT22;8124;48.634;8.120;2022-11-20T14:32:45;11.20;99.90
16040;DHT22;8124;48.634;8.120;2022-11-20T14:37:50;11.10;99.90
16040;DHT22;8124;48.634;8.120;2022-11-20T14:42:54;11.00;99.90
16040;DHT22;8124;48.634;8.120;2022-11-20T14:47:58;11.00;99.90
16040;DHT22;8124;48.634;8.120;2022-11-20T14:53:03;10.90;99.90
16040;DHT22;8124;48.634;8.120;2022-11-20T14:58:19;11.00;99.90
16040;DHT22;8124;48.634;8.120;2022-11-20T15:03:23;10.90;99.90
16040;DHT22;8124;48.634;8.120;2022-11-20T15:08:34;11.00;99.90
16040;DHT22;8124;48.634;8.120;2022-11-20T15:13:39;10.90;99.90
16040;DHT22;8124;48.634;8.120;2022-11-20T15:18:43;11.00;99.90
16040;DHT22;8124;48.634;8.120;2022-11-20T15:23:48;10.90;99.90
16040;DHT22;8124;48.634;8.120;2022-11-20T15:28:51;10.90;99.90
16040;DHT22;8124;48.634;8.120;2022-11-20T15:33:55;10.90;99.90
16040;DHT22;8124;48.634;8.120;2022-11-20T15:38:59;10.90;99.90
16040;DHT22;8124;48.634;8.120;2022-11-20T15:44:03;10.80;99.90
16040;DHT22;8124;48.634;8.120;2022-11-20T15:49:10;10.70;99.90
16040;DHT22;8124;48.634;8.120;2022-11-20T15:54:17;10.70;99.90
16040;DHT22;8124;48.634;8.120;2022-11-20T15:59:22;10.70;99.90
16040;DHT22;8124;48.634;8.120;2022-11-20T16:04:25;10.70;99.90
16040;DHT22;8124;48.634;8.120;2022-11-20T16:09:29;10.70;99.90
16040;DHT22;8124;48.634;8.120;2022-11-20T16:14:32;10.70;99.90
16040;DHT22;8124;48.634;8.120;2022-11-20T16:19:53;10.60;99.90
16040;DHT22;8124;48.634;8.120;2022-11-20T16:24:58;10.60;99.90
16040;DHT22;8124;48.634;8.120;2022-11-20T16:30:01;10.60;99.90
16040;DHT22;8124;48.634;8.120;2022-11-20T16:35:07;10.60;99.90
16040;DHT22;8124;48.634;8.120;2022-11-20T16:40:12;10.50;99.90
16040;DHT22;8124;48.634;8.120;2022-11-20T16:45:21;10.40;99.90
16040;DHT22;8124;48.634;8.120;2022-11-20T16:50:33;10.40;99.90
16040;DHT22;8124;48.634;8.120;2022-11-20T16:55:38;10.40;99.90
16040;DHT22;8124;48.634;8.120;2022-11-20T17:00:44;10.50;99.90
16040;DHT22;8124;48.634;8.120;2022-11-20T17:05:52;10.30;99.90
16040;DHT22;8124;48.634;8.120;2022-11-20T17:11:04;10.40;99.90
16040;DHT22;8124;48.634;8.120;2022-11-20T17:16:09;10.40;99.90
16040;DHT22;8124;48.634;8.120;2022-11-20T17:21:12;10.40;99.90
16040;DHT22;8124;48.634;8.120;2022-11-20T17:26:18;10.30;99.90
16040;DHT22;8124;48.634;8.120;2022-11-20T17:31:22;10.30;99.90
16040;DHT22;8124;48.634;8.120;2022-11-20T17:36:29;10.40;99.90
16040;DHT22;8124;48.634;8.120;2022-11-20T17:41:33;10.40;99.90
16040;DHT22;8124;48.634;8.120;2022-11-20T17:46:37;10.50;99.90
16040;DHT22;8124;48.634;8.120;2022-11-20T17:51:40;10.40;99.90
16040;DHT22;8124;48.634;8.120;2022-11-20T17:56:44;10.20;99.90
16040;DHT22;8124;48.634;8.120;2022-11-20T18:02:07;10.10;99.90
16040;DHT22;8124;48.634;8.120;2022-11-20T18:07:12;9.80;99.90
16040;DHT22;8124;48.634;8.120;2022-11-20T18:12:16;9.40;99.90
16040;DHT22;8124;48.634;8.120;2022-11-20T18:17:19;9.20;99.90
16040;DHT22;8124;48.634;8.120;2022-11-20T18:22:22;9.20;99.90
16040;DHT22;8124;48.634;8.120;2022-11-20T18:27:27;9.20;99.90
16040;DHT22;8124;48.634;8.120;2022-11-20T18:32:30;9.10;99.90
16040;DHT22;8124;48.634;8.120;2022-11-20T18:37:36;9.30;99.90
16040;DHT22;8124;48.634;8.120;2022-11-20T18:42:40;9.10;99.90
16040;DHT22;8124;48.634;8.120;2022-11-20T18:48:00;9.10;99.90
16040;DHT22;8124;48.634;8.120;2022-11-20T18:53:03;9.00;99.90
16040;DHT22;8124;48.634;8.120;2022-11-20T18:58:07;9.10;99.90
16040;DHT22;8124;48.634;8.120;2022-11-20T19:03:14;9.00;99.90
16040;DHT22;8124;48.634;8.120;2022-11-20T19:08:17;9.00;99.90
16040;DHT22;8124;48.634;8.120;2022-11-20T19:13:25;9.00;99.90
16040;DHT22;8124;48.634;8.120;2022-11-20T19:18:31;9.10;99.90
16040;DHT22;8124;48.634;8.120;2022-11-20T19:23:35;9.00;99.90
16040;DHT22;8124;48.634;8.120;2022-11-20T19:28:39;8.90;99.90
16040;DHT22;8124;48.634;8.120;2022-11-20T19:33:42;8.80;99.90
16040;DHT22;8124;48.634;8.120;2022-11-20T19:38:47;8.80;99.90
16040;DHT22;8124;48.634;8.120;2022-11-20T19:43:54;8.90;99.90
16040;DHT22;8124;48.634;8.120;2022-11-20T19:48:57;8.90;99.90
16040;DHT22;8124;48.634;8.120;2022-11-20T19:54:01;8.90;99.90
16040;DHT22;8124;48.634;8.120;2022-11-20T19:59:06;8.70;99.90
16040;DHT22;8124;48.634;8.120;2022-11-20T20:04:08;8.80;99.90
16040;DHT22;8124;48.634;8.120;2022-11-20T20:09:12;8.80;99.90
16040;DHT22;8124;48.634;8.120;2022-11-20T20:14:17;8.80;99.90
16040;DHT22;8124;48.634;8.120;2022-11-20T20:19:20;8.70;99.90
16040;DHT22;8124;48.634;8.120;2022-11-20T20:24:24;8.70;99.90
16040;DHT22;8124;48.634;8.120;2022-11-20T20:29:28;8.70;99.90
16040;DHT22;8124;48.634;8.120;2022-11-20T20:34:31;8.80;99.90
16040;DHT22;8124;48.634;8.120;2022-11-20T20:39:34;8.70;99.90
16040;DHT22;8124;48.634;8.120;2022-11-20T20:44:38;8.70;99.90
16040;DHT22;8124;48.634;8.120;2022-11-20T20:49:59;8.70;99.90
16040;DHT22;8124;48.634;8.120;2022-11-20T20:55:02;8.90;99.90
16040;DHT22;8124;48.634;8.120;2022-11-20T21:00:07;8.80;99.90
16040;DHT22;8124;48.634;8.120;2022-11-20T21:05:11;8.80;99.90
16040;DHT22;8124;48.634;8.120;2022-11-20T21:10:14;8.90;99.90
16040;DHT22;8124;48.634;8.120;2022-11-20T21:15:26;8.70;99.90
16040;DHT22;8124;48.634;8.120;2022-11-20T21:20:29;8.70;99.90
16040;DHT22;8124;48.634;8.120;2022-11-20T21:25:52;8.70;99.90
16040;DHT22;8124;48.634;8.120;2022-11-20T21:31:06;9.00;99.90
16040;DHT22;8124;48.634;8.120;2022-11-20T21:36:12;8.90;99.90
16040;DHT22;8124;48.634;8.120;2022-11-20T21:41:15;9.00;99.90
16040;DHT22;8124;48.634;8.120;2022-11-20T21:46:20;8.70;99.90
16040;DHT22;8124;48.634;8.120;2022-11-20T21:51:24;9.20;99.90
16040;DHT22;8124;48.634;8.120;2022-11-20T21:56:28;8.90;99.90
16040;DHT22;8124;48.634;8.120;2022-11-20T22:01:32;8.80;99.90
16040;DHT22;8124;48.634;8.120;2022-11-20T22:06:35;8.70;99.90
16040;DHT22;8124;48.634;8.120;2022-11-20T22:11:38;8.80;99.90
16040;DHT22;8124;48.634;8.120;2022-11-20T22:16:42;8.80;99.90
16040;DHT22;8124;48.634;8.120;2022-11-20T22:21:45;8.70;99.90
16040;DHT22;8124;48.634;8.120;2022-11-20T22:26:48;8.60;99.90
16040;DHT22;8124;48.634;8.120;2022-11-20T22:31:53;8.60;99.90
16040;DHT22;8124;48.634;8.120;2022-11-20T22:36:56;8.60;99.90
16040;DHT22;8124;48.634;8.120;2022-11-20T22:41:59;8.80;99.90
16040;DHT22;8124;48.634;8.120;2022-11-20T22:47:03;8.60;99.90
16040;DHT22;8124;48.634;8.120;2022-11-20T22:52:12;8.60;99.90
16040;DHT22;8124;48.634;8.120;2022-11-20T22:57:14;8.70;99.90
16040;DHT22;8124;48.634;8.120;2022-11-20T23:02:19;8.60;99.90
16040;DHT22;8124;48.634;8.120;2022-11-20T23:07:22;8.60;99.90
16040;DHT22;8124;48.634;8.120;2022-11-20T23:12:24;8.70;99.90
16040;DHT22;8124;48.634;8.120;2022-11-20T23:17:29;8.70;99.90
16040;DHT22;8124;48.634;8.120;2022-11-20T23:22:32;8.70;99.90
16040;DHT22;8124;48.634;8.120;2022-11-20T23:27:35;8.70;99.90
16040;DHT22;8124;48.634;8.120;2022-11-20T23:32:39;8.90;99.90
16040;DHT22;8124;48.634;8.120;2022-11-20T23:37:42;8.70;99.90
16040;DHT22;8124;48.634;8.120;2022-11-20T23:42:45;8.80;99.90
16040;DHT22;8124;48.634;8.120;2022-11-20T23:48:03;8.80;99.90
16040;DHT22;8124;48.634;8.120;2022-11-20T23:53:07;8.80;99.90
16040;DHT22;8124;48.634;8.120;2022-11-20T23:58:10;8.80;99.90
